Terminal Aerodrome Forecast
Issued by NWS

Current Version | Previous Version | Graphics & Text | Print | Product List | Glossary On
Versions: 1 2 3 4 5 6 7 8 9 10 11 12 13 14 15 16 17
599
FTUS41 KPBZ 050608 AAA
TAFMGW
TAF AMD
KMGW 050608Z 0506/0606 21009G15KT 4SM -RA BR BKN008 OVC012
     FM050700 22008G15KT 5SM BR OVC008
     FM051200 26006KT P6SM OVC010
     FM051400 28005KT P6SM BKN020
     FM051700 29005KT P6SM BKN040
     FM060200 09003KT P6SM BKN200=

USA.gov is the U.S. government's official web portal to all federal, state and local government web resources and services.